Tofte, Minnesota
Current Conditions -  °F | °C
As of 2:53 PM on Saturday 25 Oct 2014 (Local Time) from KCKC Reporting Station
Clear Clear  
Wind Chill: 50°   Ceiling: Unl
Heat Index: 50°   Visibility: 10mi
Dew Point: 27°   Wind: 13mph
Humidity: 40%   Direction: 270°W
Pressure: 29.78"   Gusts: 31mph
Location:  47.57°N, 90.84°W
Report Text: KCKC 251953Z AUTO 27011G27KT 10SM CLR 10/M03 A2978 RMK AO2
Loading
Personal Weather Stations






























Interactive Weather Map New forecast layout! Learn more

10-Day Weather Forecast

Advertisements
Track Severe Weather on mobile